createdAt,value
2017-06-23T00:02:08.320Z,46.40
2017-06-23T00:04:36.407Z,46.70
2017-06-23T00:07:04.776Z,46.80
2017-06-23T00:09:32.843Z,47.20
2017-06-23T00:12:00.945Z,47.30
2017-06-23T00:14:29.044Z,47.40
2017-06-23T00:16:57.128Z,47.10
2017-06-23T00:19:25.220Z,47.20
2017-06-23T00:21:53.367Z,47.30
2017-06-23T00:24:21.486Z,47.40
2017-06-23T00:26:49.736Z,47.70
2017-06-23T00:29:17.831Z,47.90
2017-06-23T00:31:45.977Z,48.10
2017-06-23T00:34:14.059Z,48.20
2017-06-23T00:36:42.923Z,48.60
2017-06-23T00:39:11.017Z,48.50
2017-06-23T00:41:39.875Z,48.90
2017-06-23T00:44:07.975Z,48.60
2017-06-23T00:46:36.849Z,48.80
2017-06-23T00:49:04.935Z,48.40
2017-06-23T00:51:33.926Z,49.00
2017-06-23T00:54:02.206Z,49.00
2017-06-23T00:56:30.285Z,48.90
2017-06-23T00:58:58.387Z,49.00
2017-06-23T01:01:26.483Z,49.70
2017-06-23T01:03:54.572Z,50.00
2017-06-23T01:06:22.660Z,50.00
2017-06-23T01:08:50.766Z,50.20
2017-06-23T01:11:18.852Z,50.60
2017-06-23T01:13:46.948Z,50.70
2017-06-23T01:16:15.038Z,51.10
2017-06-23T01:18:43.148Z,51.20
2017-06-23T01:21:11.240Z,51.00
2017-06-23T01:23:39.323Z,51.50
2017-06-23T01:26:07.422Z,52.00
2017-06-23T01:28:35.528Z,52.30
2017-06-23T01:31:03.612Z,52.30
2017-06-23T01:33:31.713Z,52.20
2017-06-23T01:35:59.867Z,52.70
2017-06-23T01:38:27.970Z,52.00
2017-06-23T01:40:56.836Z,52.60
2017-06-23T01:43:24.927Z,52.50
2017-06-23T01:45:53.914Z,53.60
2017-06-23T01:48:22.004Z,53.50
2017-06-23T01:50:50.100Z,53.40
2017-06-23T01:53:18.208Z,53.80
2017-06-23T01:55:46.287Z,54.10
2017-06-23T01:58:14.392Z,54.10
2017-06-23T02:00:42.483Z,54.10
2017-06-23T02:03:10.584Z,55.50
2017-06-23T02:05:38.686Z,55.40
2017-06-23T02:08:06.776Z,55.90
2017-06-23T02:10:34.876Z,56.60
2017-06-23T02:13:02.972Z,57.10
2017-06-23T02:15:31.070Z,57.70
2017-06-23T02:17:59.154Z,58.00
2017-06-23T02:20:27.245Z,58.40
2017-06-23T02:22:55.329Z,58.60
2017-06-23T02:25:23.442Z,58.60
2017-06-23T02:27:51.532Z,58.50
2017-06-23T02:30:19.618Z,58.90
2017-06-23T02:32:47.721Z,58.90
2017-06-23T02:35:15.824Z,58.80
2017-06-23T02:37:43.913Z,58.70
2017-06-23T02:40:12.001Z,59.10
2017-06-23T02:42:40.106Z,59.10
2017-06-23T02:45:08.199Z,58.40
2017-06-23T02:47:36.298Z,58.20
2017-06-23T02:50:04.380Z,58.30
2017-06-23T02:52:32.480Z,58.60
2017-06-23T02:55:00.576Z,58.70
2017-06-23T02:57:28.671Z,59.30
2017-06-23T02:59:56.761Z,59.20
2017-06-23T03:02:24.868Z,58.80
2017-06-23T03:04:52.971Z,58.80
2017-06-23T03:07:21.067Z,59.00
2017-06-23T03:09:49.163Z,59.10
2017-06-23T03:12:17.251Z,59.00
2017-06-23T03:14:45.353Z,59.10
2017-06-23T03:17:13.444Z,58.90
2017-06-23T03:19:41.572Z,58.60
2017-06-23T03:22:09.655Z,58.60
2017-06-23T03:24:37.746Z,58.50
2017-06-23T03:27:06.651Z,58.30
2017-06-23T03:29:34.737Z,58.10
2017-06-23T03:32:02.838Z,58.00
2017-06-23T03:34:30.919Z,58.50
2017-06-23T03:36:59.011Z,57.60
2017-06-23T03:39:27.103Z,57.50
2017-06-23T03:41:55.196Z,57.40
2017-06-23T03:44:23.283Z,57.60
2017-06-23T03:46:51.383Z,56.70
2017-06-23T03:49:19.478Z,56.40
2017-06-23T03:51:47.566Z,56.20
2017-06-23T03:54:15.664Z,55.80
2017-06-23T03:56:43.766Z,55.70
2017-06-23T03:59:11.850Z,56.00
2017-06-23T04:01:39.947Z,56.10
2017-06-23T04:04:08.047Z,56.40
2017-06-23T04:06:36.154Z,56.80
2017-06-23T04:09:04.245Z,56.40
2017-06-23T04:11:32.361Z,56.50
2017-06-23T04:14:00.576Z,56.50
2017-06-23T04:16:28.850Z,56.80
2017-06-23T04:18:56.938Z,56.90
2017-06-23T04:21:25.030Z,56.40
2017-06-23T04:23:53.119Z,56.20
2017-06-23T04:26:21.204Z,56.20
2017-06-23T04:28:49.302Z,56.00
2017-06-23T04:31:17.397Z,55.70
2017-06-23T04:33:45.502Z,55.50
2017-06-23T04:36:13.606Z,55.60
2017-06-23T04:38:41.709Z,55.70
2017-06-23T04:41:09.815Z,55.80
2017-06-23T04:43:37.912Z,55.50
2017-06-23T04:46:06.035Z,54.90
2017-06-23T04:48:34.124Z,54.70
2017-06-23T04:51:02.214Z,55.00
2017-06-23T04:53:30.331Z,55.00
2017-06-23T04:55:58.429Z,54.70
2017-06-23T04:58:26.515Z,54.80
2017-06-23T05:00:54.612Z,54.80
2017-06-23T05:03:22.707Z,54.70
2017-06-23T05:05:50.795Z,54.60
2017-06-23T05:08:18.910Z,54.70
2017-06-23T05:10:47.026Z,54.80
2017-06-23T05:13:15.120Z,54.30
2017-06-23T05:15:43.201Z,54.60
2017-06-23T05:18:11.299Z,55.00
2017-06-23T05:20:39.414Z,55.30
2017-06-23T05:23:07.523Z,56.00
2017-06-23T05:25:35.620Z,55.40
2017-06-23T05:28:03.731Z,55.10
2017-06-23T05:30:31.847Z,55.10
2017-06-23T05:32:59.923Z,56.30
2017-06-23T05:35:28.038Z,55.70
2017-06-23T05:37:56.125Z,55.30
2017-06-23T05:40:24.226Z,54.50
2017-06-23T05:42:52.306Z,54.20
2017-06-23T05:45:20.420Z,54.20
2017-06-23T05:47:48.507Z,53.80
2017-06-23T05:50:16.605Z,53.60
2017-06-23T05:52:44.683Z,53.50
2017-06-23T05:55:12.764Z,52.80
2017-06-23T05:57:40.874Z,52.10
2017-06-23T06:00:08.967Z,52.30
2017-06-23T06:02:37.057Z,52.30
2017-06-23T06:05:05.147Z,52.30
2017-06-23T06:07:33.267Z,52.30
2017-06-23T06:10:01.325Z,52.40
2017-06-23T06:12:29.431Z,52.50
2017-06-23T06:14:57.526Z,52.30
2017-06-23T06:17:25.608Z,51.70
2017-06-23T06:19:53.712Z,51.30
2017-06-23T06:22:21.820Z,52.00
2017-06-23T06:24:49.916Z,50.90
2017-06-23T06:27:18.054Z,50.80
2017-06-23T06:29:46.147Z,51.90
2017-06-23T06:32:14.231Z,52.20
2017-06-23T06:34:42.340Z,51.10
2017-06-23T06:37:10.440Z,50.90
2017-06-23T06:39:38.529Z,51.10
2017-06-23T06:42:06.621Z,50.60
2017-06-23T06:44:35.601Z,50.80
2017-06-23T06:47:03.691Z,50.60
2017-06-23T06:49:31.781Z,49.90
2017-06-23T06:51:59.892Z,49.30
2017-06-23T06:54:27.972Z,49.60
2017-06-23T06:56:56.075Z,49.40
2017-06-23T06:59:24.159Z,49.40
2017-06-23T07:01:52.247Z,49.20
2017-06-23T07:04:20.338Z,49.40
2017-06-23T07:06:48.423Z,49.30
2017-06-23T07:09:16.516Z,50.40
2017-06-23T07:11:44.609Z,51.50
2017-06-23T07:14:12.700Z,52.30
2017-06-23T07:16:40.782Z,50.30
2017-06-23T07:19:08.888Z,48.90
2017-06-23T07:21:36.972Z,49.50
2017-06-23T07:24:05.066Z,49.50
2017-06-23T07:26:33.156Z,50.00
2017-06-23T07:29:01.234Z,48.10
2017-06-23T07:31:29.326Z,47.00
2017-06-23T07:33:57.415Z,46.60
2017-06-23T07:36:25.507Z,47.30
2017-06-23T07:38:53.611Z,46.10
2017-06-23T07:41:21.711Z,45.40
2017-06-23T07:43:49.797Z,45.80
2017-06-23T07:46:17.900Z,49.70
2017-06-23T07:48:46.000Z,47.50
2017-06-23T07:51:14.094Z,46.20
2017-06-23T07:53:42.187Z,44.60
2017-06-23T07:56:10.274Z,45.60
2017-06-23T07:58:38.378Z,44.70
2017-06-23T08:01:06.475Z,46.50
2017-06-23T08:03:34.571Z,44.80
2017-06-23T08:06:02.661Z,43.70
2017-06-23T08:08:30.766Z,43.90
2017-06-23T08:10:58.852Z,44.90
2017-06-23T08:13:26.942Z,43.80
2017-06-23T08:15:55.039Z,43.60
2017-06-23T08:18:23.127Z,42.30
2017-06-23T08:20:51.223Z,43.60
2017-06-23T08:23:19.317Z,43.20
2017-06-23T08:25:47.415Z,43.00
2017-06-23T08:28:15.503Z,45.20
2017-06-23T08:30:43.610Z,47.80
2017-06-23T08:33:11.700Z,48.10
2017-06-23T08:35:39.787Z,49.00
2017-06-23T08:38:07.883Z,48.90
2017-06-23T08:40:35.981Z,47.10
2017-06-23T08:43:04.072Z,46.10
2017-06-23T08:45:32.154Z,43.90
2017-06-23T08:48:00.265Z,43.80
2017-06-23T08:50:28.347Z,43.60
2017-06-23T08:52:56.456Z,45.20
2017-06-23T08:55:24.541Z,44.40
2017-06-23T08:57:52.632Z,44.20
2017-06-23T09:00:20.723Z,47.00
2017-06-23T09:02:48.809Z,44.50
2017-06-23T09:05:16.907Z,45.00
2017-06-23T09:07:44.996Z,45.60
2017-06-23T09:10:13.119Z,47.00
2017-06-23T09:12:41.173Z,48.50
2017-06-23T09:15:09.273Z,47.00
2017-06-23T09:17:37.359Z,46.00
2017-06-23T09:20:05.451Z,43.50
2017-06-23T09:22:33.570Z,43.80
2017-06-23T09:25:01.647Z,41.90
2017-06-23T09:27:29.744Z,42.30
2017-06-23T09:29:57.827Z,41.20
2017-06-23T09:32:25.919Z,40.80
2017-06-23T09:34:54.005Z,38.60
2017-06-23T09:37:22.095Z,40.50
2017-06-23T09:39:50.176Z,39.10
2017-06-23T09:42:18.293Z,37.80
2017-06-23T09:44:46.375Z,38.10
2017-06-23T09:47:14.470Z,38.80
2017-06-23T09:49:42.576Z,37.30
2017-06-23T09:52:10.667Z,37.20
2017-06-23T09:54:38.763Z,37.20
2017-06-23T09:57:06.839Z,36.70
2017-06-23T09:59:34.932Z,36.80
2017-06-23T10:02:03.016Z,36.30
2017-06-23T10:04:31.109Z,35.80
2017-06-23T10:06:59.205Z,35.60
2017-06-23T10:09:27.466Z,35.40
2017-06-23T10:11:55.568Z,36.00
2017-06-23T10:14:23.816Z,36.30
2017-06-23T10:16:52.036Z,35.70
2017-06-23T10:19:20.251Z,36.20
2017-06-23T10:21:48.357Z,36.50
2017-06-23T10:24:17.210Z,35.70
2017-06-23T10:26:45.307Z,35.60
2017-06-23T10:29:13.404Z,36.10
2017-06-23T10:31:41.503Z,35.50
2017-06-23T10:34:09.583Z,34.10
2017-06-23T10:36:37.687Z,33.70
2017-06-23T10:39:05.779Z,33.50
2017-06-23T10:41:33.867Z,33.60
2017-06-23T10:44:01.980Z,33.30
2017-06-23T10:46:30.079Z,32.50
2017-06-23T10:48:58.176Z,32.00
2017-06-23T10:51:26.255Z,32.70
2017-06-23T10:53:54.351Z,33.70
2017-06-23T10:56:22.440Z,33.30
2017-06-23T10:58:50.523Z,32.30
2017-06-23T11:01:18.622Z,32.20
2017-06-23T11:03:46.715Z,32.10
2017-06-23T11:06:14.826Z,31.40
2017-06-23T11:08:42.915Z,31.90
2017-06-23T11:11:11.007Z,30.50
2017-06-23T11:13:39.119Z,30.80
2017-06-23T11:16:07.219Z,31.30
2017-06-23T11:18:35.307Z,31.80
2017-06-23T11:21:03.419Z,31.90
2017-06-23T11:23:31.510Z,32.70
2017-06-23T11:25:59.592Z,31.90
2017-06-23T11:28:27.684Z,33.40
2017-06-23T11:30:55.766Z,32.10
2017-06-23T11:33:23.859Z,32.90
2017-06-23T11:35:51.952Z,32.60
2017-06-23T11:38:20.044Z,32.00
2017-06-23T11:40:48.140Z,32.00
2017-06-23T11:43:16.271Z,32.10
2017-06-23T11:45:44.363Z,32.30
2017-06-23T11:48:12.471Z,32.30
2017-06-23T11:50:40.556Z,32.90
2017-06-23T11:53:08.648Z,32.00
2017-06-23T11:55:36.748Z,31.50
2017-06-23T11:58:04.831Z,31.60
2017-06-23T12:00:32.921Z,34.40
2017-06-23T12:03:01.002Z,33.70
2017-06-23T12:05:29.103Z,32.20
2017-06-23T12:07:57.188Z,33.40
2017-06-23T12:10:25.284Z,32.20
2017-06-23T12:12:53.368Z,31.30
2017-06-23T12:15:21.479Z,32.60
2017-06-23T12:17:49.563Z,32.10
2017-06-23T12:20:17.664Z,32.60
2017-06-23T12:22:45.750Z,32.40
2017-06-23T12:25:13.849Z,31.50
2017-06-23T12:27:41.939Z,30.80
2017-06-23T12:30:10.020Z,31.30
2017-06-23T12:32:38.117Z,31.70
2017-06-23T12:35:06.212Z,33.30
2017-06-23T12:37:34.295Z,32.10
2017-06-23T12:40:02.380Z,32.00
2017-06-23T12:42:30.467Z,32.40
2017-06-23T12:44:58.555Z,34.60
2017-06-23T12:47:26.643Z,33.10
2017-06-23T12:49:54.739Z,31.70
2017-06-23T12:52:22.835Z,31.00
2017-06-23T12:54:50.936Z,31.50
2017-06-23T12:57:19.032Z,30.70
2017-06-23T12:59:47.140Z,30.00
2017-06-23T13:02:15.216Z,29.90
2017-06-23T13:04:43.297Z,29.10
2017-06-23T13:07:11.395Z,29.70
2017-06-23T13:09:39.483Z,29.80
2017-06-23T13:12:07.579Z,29.90
2017-06-23T13:14:35.669Z,29.80
2017-06-23T13:17:03.772Z,30.10
2017-06-23T13:19:31.861Z,31.20
2017-06-23T13:21:59.977Z,30.40
2017-06-23T13:24:28.055Z,30.10
2017-06-23T13:26:56.144Z,30.40
2017-06-23T13:29:24.240Z,30.00
2017-06-23T13:31:52.321Z,30.20
2017-06-23T13:34:20.425Z,29.50
2017-06-23T13:36:48.499Z,29.00
2017-06-23T13:39:16.594Z,29.70
2017-06-23T13:41:44.683Z,29.80
2017-06-23T13:44:12.795Z,30.00
2017-06-23T13:46:40.888Z,31.00
2017-06-23T13:49:08.967Z,30.30
2017-06-23T13:51:37.060Z,30.80
2017-06-23T13:54:05.139Z,30.90
2017-06-23T13:56:33.240Z,30.60
2017-06-23T13:59:01.340Z,31.70
2017-06-23T14:01:29.425Z,32.50
2017-06-23T14:03:57.520Z,32.50
2017-06-23T14:06:25.622Z,32.10
2017-06-23T14:08:53.712Z,32.20
2017-06-23T14:11:21.815Z,31.60
2017-06-23T14:13:49.899Z,32.00
2017-06-23T14:16:17.984Z,32.30
2017-06-23T14:18:46.075Z,30.60
2017-06-23T14:21:14.164Z,30.00
2017-06-23T14:23:42.259Z,30.20
2017-06-23T14:26:10.343Z,30.80
2017-06-23T14:28:38.450Z,30.60
2017-06-23T14:31:06.546Z,32.60
2017-06-23T14:33:34.633Z,32.20
2017-06-23T14:36:02.721Z,32.30
2017-06-23T14:38:30.823Z,32.70
2017-06-23T14:40:58.915Z,32.70
2017-06-23T14:43:27.004Z,32.20
2017-06-23T14:45:55.103Z,33.10
2017-06-23T14:48:23.195Z,30.20
2017-06-23T14:50:51.302Z,29.20
2017-06-23T14:53:19.384Z,28.20
2017-06-23T14:55:47.472Z,29.40
2017-06-23T14:58:15.558Z,29.40
2017-06-23T15:00:43.646Z,30.00
2017-06-23T15:03:11.744Z,30.70
2017-06-23T15:05:39.820Z,30.70
2017-06-23T15:08:07.903Z,31.00
2017-06-23T15:10:35.979Z,31.80
2017-06-23T15:13:04.068Z,31.70
2017-06-23T15:15:32.165Z,31.30
2017-06-23T15:18:00.284Z,31.30
2017-06-23T15:20:28.382Z,31.80
2017-06-23T15:22:56.483Z,31.70
2017-06-23T15:25:24.566Z,32.30
2017-06-23T15:27:52.667Z,32.60
2017-06-23T15:30:20.762Z,32.90
2017-06-23T15:32:48.861Z,33.10
2017-06-23T15:35:16.936Z,33.00
2017-06-23T15:37:45.020Z,31.80
2017-06-23T15:40:13.100Z,32.60
2017-06-23T15:42:41.176Z,33.30
2017-06-23T15:45:09.264Z,34.30
2017-06-23T15:47:37.351Z,33.70
2017-06-23T15:50:05.445Z,34.50
2017-06-23T15:52:33.535Z,34.80
2017-06-23T15:55:01.623Z,35.90
2017-06-23T15:57:29.720Z,35.70
2017-06-23T15:59:57.824Z,34.90
2017-06-23T16:02:25.904Z,35.30
2017-06-23T16:04:53.994Z,36.00
2017-06-23T16:07:22.093Z,36.20
2017-06-23T16:09:50.171Z,35.30
2017-06-23T16:12:18.274Z,33.50
2017-06-23T16:14:46.372Z,33.30
2017-06-23T16:17:14.459Z,34.30
2017-06-23T16:19:42.544Z,35.50
2017-06-23T16:22:10.640Z,36.00
2017-06-23T16:24:38.707Z,35.50
2017-06-23T16:27:06.799Z,34.90
2017-06-23T16:29:34.901Z,34.40
2017-06-23T16:32:03.009Z,35.10
2017-06-23T16:34:31.086Z,34.70
2017-06-23T16:36:59.162Z,35.10
2017-06-23T16:39:27.247Z,34.80
2017-06-23T16:41:55.332Z,34.80
2017-06-23T16:44:23.418Z,34.90
2017-06-23T16:46:51.515Z,34.90
2017-06-23T16:49:19.610Z,35.20
2017-06-23T16:51:47.714Z,35.10
2017-06-23T16:54:15.835Z,36.10
2017-06-23T16:56:43.926Z,36.10
2017-06-23T16:59:12.038Z,36.90
2017-06-23T17:01:40.120Z,37.20
2017-06-23T17:04:08.198Z,37.00
2017-06-23T17:06:36.286Z,36.70
2017-06-23T17:09:04.385Z,36.70
2017-06-23T17:11:32.472Z,36.80
2017-06-23T17:14:00.552Z,37.50
2017-06-23T17:16:28.633Z,37.50
2017-06-23T17:18:56.710Z,37.20
2017-06-23T17:21:24.806Z,37.70
2017-06-23T17:23:53.105Z,37.90
2017-06-23T17:26:21.182Z,38.50
2017-06-23T17:28:49.277Z,37.70
2017-06-23T17:31:17.373Z,37.70
2017-06-23T17:33:45.459Z,37.40
2017-06-23T17:36:13.549Z,37.40
2017-06-23T17:38:41.645Z,37.50
2017-06-23T17:41:09.731Z,38.00
2017-06-23T17:43:37.843Z,37.80
2017-06-23T17:46:05.923Z,38.00
2017-06-23T17:48:34.020Z,38.20
2017-06-23T17:51:02.115Z,38.50
2017-06-23T17:53:30.195Z,38.80
2017-06-23T17:55:58.281Z,38.60
2017-06-23T17:58:26.364Z,38.60
2017-06-23T18:00:54.447Z,38.60
2017-06-23T18:03:22.530Z,38.60
2017-06-23T18:05:50.631Z,39.00
2017-06-23T18:08:18.715Z,39.30
2017-06-23T18:10:46.787Z,39.10
2017-06-23T18:13:14.887Z,39.50
2017-06-23T18:15:42.964Z,39.30
2017-06-23T18:18:11.069Z,39.30
2017-06-23T18:20:39.143Z,39.60
2017-06-23T18:23:07.232Z,39.70
2017-06-23T18:25:35.306Z,39.50
2017-06-23T18:28:03.401Z,39.80
2017-06-23T18:30:31.487Z,39.90
2017-06-23T18:32:59.598Z,39.90
2017-06-23T18:35:27.669Z,39.70
2017-06-23T18:37:55.746Z,40.20
2017-06-23T18:40:23.833Z,40.20
2017-06-23T18:42:51.916Z,39.80
2017-06-23T18:45:19.995Z,40.10
2017-06-23T18:47:48.095Z,40.10
2017-06-23T18:50:16.178Z,40.60
2017-06-23T18:52:44.247Z,40.40
2017-06-23T18:55:12.351Z,40.50
2017-06-23T18:57:40.431Z,40.60
2017-06-23T19:00:08.520Z,41.30
2017-06-23T19:02:36.627Z,42.00
2017-06-23T19:05:04.704Z,42.60
2017-06-23T19:07:32.799Z,42.70
2017-06-23T19:10:00.887Z,43.50
2017-06-23T19:12:29.010Z,43.60
2017-06-23T19:14:57.083Z,44.10
2017-06-23T19:17:25.163Z,44.50
2017-06-23T19:19:53.249Z,45.40
2017-06-23T19:22:21.329Z,45.20
2017-06-23T19:24:49.434Z,46.20
2017-06-23T19:27:17.520Z,46.30
2017-06-23T19:29:45.591Z,46.40
2017-06-23T19:32:13.675Z,46.90
2017-06-23T19:34:41.978Z,47.20
2017-06-23T19:37:10.050Z,47.00
2017-06-23T19:39:38.159Z,47.20
2017-06-23T19:42:06.268Z,47.90
2017-06-23T19:44:34.342Z,48.20
2017-06-23T19:47:02.432Z,47.50
2017-06-23T19:49:30.572Z,47.30
2017-06-23T19:51:58.650Z,47.70
2017-06-23T19:54:26.735Z,47.70
2017-06-23T19:56:54.814Z,48.40
2017-06-23T19:59:22.895Z,48.30
2017-06-23T20:01:50.993Z,48.40
2017-06-23T20:04:19.059Z,48.80
2017-06-23T20:06:47.154Z,48.70
2017-06-23T20:09:15.244Z,48.80
2017-06-23T20:11:43.319Z,49.20
2017-06-23T20:14:11.406Z,49.30
2017-06-23T20:16:39.491Z,49.80
2017-06-23T20:19:07.572Z,50.50
2017-06-23T20:21:35.655Z,50.90
2017-06-23T20:24:03.745Z,51.30
2017-06-23T20:26:31.837Z,51.60
2017-06-23T20:28:59.960Z,51.60
2017-06-23T20:31:28.041Z,52.10
2017-06-23T20:33:56.122Z,51.80
2017-06-23T20:36:24.224Z,52.00
2017-06-23T20:38:52.308Z,51.40
2017-06-23T20:41:20.390Z,51.70
2017-06-23T20:43:48.470Z,51.70
2017-06-23T20:46:16.571Z,51.30
2017-06-23T20:48:44.656Z,50.80
2017-06-23T20:51:12.744Z,50.70
2017-06-23T20:53:40.825Z,49.70
2017-06-23T20:56:08.895Z,50.00
2017-06-23T20:58:36.987Z,49.60
2017-06-23T21:01:05.143Z,49.80
2017-06-23T21:03:33.240Z,50.00
2017-06-23T21:06:01.317Z,50.40
2017-06-23T21:08:30.204Z,51.20
2017-06-23T21:10:58.274Z,51.50
2017-06-23T21:13:26.355Z,51.50
2017-06-23T21:15:54.440Z,50.90
2017-06-23T21:18:22.536Z,51.30
2017-06-23T21:20:50.617Z,51.10
2017-06-23T21:23:18.697Z,50.80
2017-06-23T21:25:46.779Z,50.30
2017-06-23T21:28:14.864Z,50.10
2017-06-23T21:30:42.958Z,49.80
2017-06-23T21:33:11.041Z,49.00
2017-06-23T21:35:39.132Z,49.00
2017-06-23T21:38:07.548Z,48.80
2017-06-23T21:40:47.151Z,48.90
2017-06-23T21:43:15.235Z,48.50
2017-06-23T21:45:43.326Z,48.60
2017-06-23T21:48:11.411Z,48.60
2017-06-23T21:50:39.486Z,48.30
2017-06-23T21:53:07.583Z,47.90
2017-06-23T21:55:35.675Z,47.70
2017-06-23T21:58:03.763Z,48.00
2017-06-23T22:00:31.854Z,48.30
2017-06-23T22:02:59.956Z,48.70
2017-06-23T22:05:28.032Z,49.00
2017-06-23T22:07:56.885Z,49.60
2017-06-23T22:10:24.972Z,48.80
2017-06-23T22:12:53.048Z,48.70
2017-06-23T22:15:21.129Z,49.10
2017-06-23T22:17:49.207Z,49.40
2017-06-23T22:20:17.290Z,49.30
2017-06-23T22:22:45.359Z,49.40
2017-06-23T22:25:13.447Z,49.00
2017-06-23T22:27:41.533Z,48.90
2017-06-23T22:30:09.628Z,49.00
2017-06-23T22:32:37.710Z,49.20
2017-06-23T22:35:05.786Z,49.30
2017-06-23T22:37:33.871Z,49.00
2017-06-23T22:40:01.948Z,49.20
2017-06-23T22:42:30.033Z,49.10
2017-06-23T22:44:58.111Z,49.20
2017-06-23T22:47:26.206Z,49.30
2017-06-23T22:49:54.305Z,49.00
2017-06-23T22:52:22.391Z,49.20
2017-06-23T22:54:50.476Z,49.00
2017-06-23T22:57:18.555Z,48.60
2017-06-23T22:59:46.659Z,48.80
2017-06-23T23:02:14.739Z,48.90
2017-06-23T23:04:42.825Z,48.70
2017-06-23T23:07:10.908Z,49.00
2017-06-23T23:09:38.996Z,49.10
2017-06-23T23:12:07.067Z,49.10
2017-06-23T23:14:35.882Z,49.10
2017-06-23T23:17:03.955Z,48.70
2017-06-23T23:19:32.446Z,48.50
2017-06-23T23:22:00.520Z,48.60
2017-06-23T23:24:28.587Z,48.60
2017-06-23T23:26:56.671Z,48.80
2017-06-23T23:29:24.753Z,49.00
2017-06-23T23:31:52.848Z,49.00
2017-06-23T23:34:20.927Z,49.00
2017-06-23T23:36:49.011Z,48.70
2017-06-23T23:39:17.095Z,48.40
2017-06-23T23:41:45.183Z,47.80
2017-06-23T23:44:13.269Z,47.80
2017-06-23T23:46:41.350Z,47.40
2017-06-23T23:49:09.434Z,47.40
2017-06-23T23:51:38.277Z,48.00
2017-06-23T23:54:06.361Z,48.00
2017-06-23T23:56:34.431Z,48.00
2017-06-23T23:59:02.523Z,48.40
